createdAt,value
2023-03-05T00:01:35.363Z,2.38
2023-03-05T00:04:08.254Z,2.15
2023-03-05T00:06:35.236Z,2.65
2023-03-05T00:09:03.392Z,2.38
2023-03-05T00:11:33.383Z,2.67
2023-03-05T00:14:04.151Z,3.53
2023-03-05T00:16:32.090Z,2.22
2023-03-05T00:19:01.520Z,2.42
2023-03-05T00:21:35.805Z,2.13
2023-03-05T00:24:07.818Z,2.33
2023-03-05T00:26:37.538Z,2.20
2023-03-05T00:29:05.433Z,2.65
2023-03-05T00:31:35.132Z,1.95
2023-03-05T00:34:07.417Z,2.22
2023-03-05T00:36:38.947Z,2.20
2023-03-05T00:39:05.813Z,2.60
2023-03-05T00:41:33.036Z,1.95
2023-03-05T00:44:00.015Z,2.33
2023-03-05T00:46:27.811Z,2.63
2023-03-05T00:48:56.879Z,2.30
2023-03-05T00:51:25.455Z,2.67
2023-03-05T00:53:53.887Z,2.42
2023-03-05T00:56:21.613Z,2.58
2023-03-05T00:58:48.672Z,3.08
2023-03-05T01:01:16.231Z,2.80
2023-03-05T01:03:43.296Z,2.42
2023-03-05T01:06:13.705Z,2.53
2023-03-05T01:08:40.827Z,2.45
2023-03-05T01:11:09.527Z,3.08
2023-03-05T01:13:37.709Z,2.00
2023-03-05T01:16:06.200Z,2.47
2023-03-05T01:18:34.088Z,2.20
2023-03-05T01:21:01.031Z,2.17
2023-03-05T01:23:28.174Z,2.78
2023-03-05T01:25:59.936Z,2.35
2023-03-05T01:28:28.098Z,1.95
2023-03-05T01:30:55.182Z,2.50
2023-03-05T01:33:22.172Z,2.35
2023-03-05T01:35:50.408Z,2.15
2023-03-05T01:38:18.618Z,1.90
2023-03-05T01:40:45.608Z,2.15
2023-03-05T01:43:12.478Z,2.22
2023-03-05T01:46:16.714Z,2.45
2023-03-05T01:48:54.127Z,2.78
2023-03-05T01:51:26.887Z,2.30
2023-03-05T01:53:58.075Z,2.22
2023-03-05T01:56:27.141Z,1.73
2023-03-05T01:59:03.113Z,2.10
2023-03-05T02:01:40.733Z,1.98
2023-03-05T02:04:12.773Z,1.77
2023-03-05T02:06:43.146Z,2.13
2023-03-05T02:09:11.201Z,2.60
2023-03-05T02:11:38.118Z,1.55
2023-03-05T02:14:09.042Z,1.60
2023-03-05T02:16:38.438Z,2.88
2023-03-05T02:19:10.524Z,1.73
2023-03-05T02:21:48.375Z,1.60
2023-03-05T02:24:36.006Z,2.03
2023-03-05T02:27:05.053Z,2.03
2023-03-05T02:29:35.451Z,2.20
2023-03-05T02:32:03.289Z,1.92
2023-03-05T02:34:30.308Z,1.90
2023-03-05T02:36:57.654Z,2.47
2023-03-05T02:39:25.662Z,2.05
2023-03-05T02:41:53.384Z,1.98
2023-03-05T02:44:20.263Z,1.73
2023-03-05T02:46:47.201Z,1.95
2023-03-05T02:49:14.472Z,1.67
2023-03-05T02:51:41.508Z,2.08
2023-03-05T02:54:08.750Z,1.50
2023-03-05T02:56:38.144Z,1.80
2023-03-05T02:59:05.463Z,2.03
2023-03-05T03:01:32.412Z,1.80
2023-03-05T03:03:59.350Z,2.03
2023-03-05T03:06:26.365Z,1.38
2023-03-05T03:08:53.249Z,2.58
2023-03-05T03:11:21.349Z,1.80
2023-03-05T03:13:48.244Z,1.67
2023-03-05T03:16:17.992Z,1.75
2023-03-05T03:18:47.397Z,2.08
2023-03-05T03:21:20.848Z,1.75
2023-03-05T03:23:47.726Z,1.30
2023-03-05T03:26:14.832Z,1.70
2023-03-05T03:28:41.715Z,2.53
2023-03-05T03:31:08.648Z,1.60
2023-03-05T03:33:35.780Z,2.47
2023-03-05T03:36:04.234Z,1.45
2023-03-05T03:38:31.690Z,1.92
2023-03-05T03:40:58.718Z,1.48
2023-03-05T03:43:25.706Z,1.38
2023-03-05T03:45:52.550Z,1.52
2023-03-05T03:48:19.449Z,1.48
2023-03-05T03:50:46.365Z,1.20
2023-03-05T03:53:14.279Z,1.55
2023-03-05T03:55:42.895Z,1.30
2023-03-05T03:58:10.369Z,1.45
2023-03-05T04:00:37.350Z,1.70
2023-03-05T04:03:04.227Z,1.48
2023-03-05T04:05:31.206Z,1.65
2023-03-05T04:07:58.565Z,1.02
2023-03-05T04:10:26.627Z,1.42
2023-03-05T04:12:53.652Z,1.40
2023-03-05T04:15:21.287Z,1.27
2023-03-05T04:17:48.236Z,1.13
2023-03-05T04:20:15.208Z,0.95
2023-03-05T04:22:42.130Z,1.38
2023-03-05T04:25:09.751Z,1.20
2023-03-05T04:27:40.406Z,1.20
2023-03-05T04:30:09.433Z,1.75
2023-03-05T04:32:36.542Z,1.00
2023-03-05T04:35:03.928Z,0.80
2023-03-05T04:37:30.926Z,0.88
2023-03-05T04:39:57.815Z,1.27
2023-03-05T04:42:24.978Z,1.23
2023-03-05T04:44:52.108Z,1.20
2023-03-05T04:47:19.732Z,1.08
2023-03-05T04:49:46.995Z,1.17
2023-03-05T04:52:15.280Z,1.15
2023-03-05T04:54:44.585Z,1.00
2023-03-05T04:57:11.469Z,1.15
2023-03-05T04:59:38.983Z,0.98
2023-03-05T05:02:06.123Z,1.38
2023-03-05T05:04:33.679Z,1.60
2023-03-05T05:07:00.555Z,1.15
2023-03-05T05:09:27.750Z,1.10
2023-03-05T05:11:54.771Z,2.08
2023-03-05T05:14:22.371Z,1.25
2023-03-05T05:16:49.353Z,1.70
2023-03-05T05:19:17.249Z,1.80
2023-03-05T05:21:44.238Z,1.50
2023-03-05T05:24:11.206Z,1.83
2023-03-05T05:26:38.279Z,1.50
2023-03-05T05:29:05.416Z,1.90
2023-03-05T05:31:32.374Z,1.92
2023-03-05T05:33:59.270Z,2.17
2023-03-05T05:36:26.220Z,2.25
2023-03-05T05:38:53.112Z,2.03
2023-03-05T05:41:20.659Z,1.88
2023-03-05T05:43:47.830Z,2.20
2023-03-05T05:46:19.288Z,2.60
2023-03-05T05:48:47.496Z,1.90
2023-03-05T05:51:22.679Z,1.83
2023-03-05T05:53:50.206Z,1.80
2023-03-05T05:56:18.159Z,2.03
2023-03-05T05:58:47.594Z,1.77
2023-03-05T06:01:29.885Z,1.85
2023-03-05T06:03:57.636Z,3.03
2023-03-05T06:06:27.142Z,1.80
2023-03-05T06:08:54.772Z,1.58
2023-03-05T06:11:22.707Z,1.77
2023-03-05T06:13:50.510Z,1.33
2023-03-05T06:16:23.850Z,2.22
2023-03-05T06:18:52.584Z,1.40
2023-03-05T06:21:21.897Z,1.50
2023-03-05T06:23:50.717Z,1.88
2023-03-05T06:26:21.061Z,1.75
2023-03-05T06:28:49.037Z,1.65
2023-03-05T06:31:25.859Z,2.00
2023-03-05T06:33:56.817Z,2.00
2023-03-05T06:36:25.500Z,1.75
2023-03-05T06:38:53.747Z,1.80
2023-03-05T06:41:28.421Z,1.65
2023-03-05T06:43:57.013Z,1.35
2023-03-05T06:46:30.425Z,1.38
2023-03-05T06:49:00.674Z,1.52
2023-03-05T06:51:32.263Z,1.33
2023-03-05T06:54:07.060Z,1.15
2023-03-05T06:56:37.736Z,1.10
2023-03-05T06:59:05.522Z,1.20
2023-03-05T07:01:33.776Z,0.98
2023-03-05T07:04:02.922Z,1.73
2023-03-05T07:06:33.461Z,0.90
2023-03-05T07:09:01.916Z,0.90
2023-03-05T07:11:31.209Z,0.88
2023-03-05T07:13:58.828Z,1.08
2023-03-05T07:16:32.446Z,0.75
2023-03-05T07:19:06.467Z,1.42
2023-03-05T07:21:37.423Z,0.93
2023-03-05T07:24:08.152Z,1.10
2023-03-05T07:26:35.774Z,1.45
2023-03-05T07:29:03.923Z,1.90
2023-03-05T07:31:31.925Z,1.58
2023-03-05T07:34:01.705Z,1.92
2023-03-05T07:36:30.761Z,2.38
2023-03-05T07:38:57.850Z,2.08
2023-03-05T07:41:25.392Z,4.63
2023-03-05T07:43:54.956Z,2.65
2023-03-05T07:46:27.894Z,1.50
2023-03-05T07:48:55.359Z,1.50
2023-03-05T07:51:24.385Z,1.48
2023-03-05T07:53:53.952Z,1.30
2023-03-05T07:56:35.360Z,2.08
2023-03-05T07:59:06.940Z,2.47
2023-03-05T08:01:35.154Z,2.30
2023-03-05T08:04:04.108Z,2.60
2023-03-05T08:06:31.411Z,3.45
2023-03-05T08:08:59.265Z,3.47
2023-03-05T08:11:26.636Z,3.55
2023-03-05T08:13:53.469Z,2.72
2023-03-05T08:16:22.074Z,1.90
2023-03-05T08:18:49.512Z,2.03
2023-03-05T08:21:26.788Z,2.15
2023-03-05T08:23:53.803Z,2.10
2023-03-05T08:26:24.200Z,1.88
2023-03-05T08:28:52.155Z,2.20
2023-03-05T08:31:22.676Z,2.08
2023-03-05T08:33:52.827Z,1.73
2023-03-05T08:36:20.306Z,1.42
2023-03-05T08:38:48.522Z,1.30
2023-03-05T08:41:17.545Z,1.50
2023-03-05T08:43:44.662Z,2.28
2023-03-05T08:46:16.061Z,1.95
2023-03-05T08:48:43.343Z,1.70
2023-03-05T08:51:15.232Z,2.10
2023-03-05T08:53:44.581Z,2.05
2023-03-05T08:56:12.229Z,2.05
2023-03-05T08:58:39.106Z,2.38
2023-03-05T09:01:06.647Z,2.17
2023-03-05T09:03:34.146Z,2.58
2023-03-05T09:06:04.188Z,3.45
2023-03-05T09:08:31.391Z,3.00
2023-03-05T09:10:58.838Z,2.50
2023-03-05T09:13:25.868Z,2.80
2023-03-05T09:16:02.526Z,2.72
2023-03-05T09:18:30.625Z,2.72
2023-03-05T09:20:57.572Z,2.92
2023-03-05T09:23:25.289Z,2.72
2023-03-05T09:25:52.276Z,3.25
2023-03-05T09:28:19.251Z,3.28
2023-03-05T09:30:46.569Z,3.55
2023-03-05T09:33:13.641Z,3.33
2023-03-05T09:35:40.992Z,3.47
2023-03-05T09:38:07.964Z,3.92
2023-03-05T09:40:57.414Z,3.25
2023-03-05T09:44:02.072Z,3.65
2023-03-05T09:46:54.715Z,3.58
2023-03-05T09:49:40.307Z,3.95
2023-03-05T09:54:46.420Z,3.65
2023-03-05T09:57:24.812Z,4.93
2023-03-05T10:00:22.698Z,3.30
2023-03-05T10:02:58.398Z,3.03
2023-03-05T10:05:58.362Z,3.45
2023-03-05T10:09:17.377Z,3.00
2023-03-05T10:15:22.487Z,3.28
2023-03-05T10:18:10.484Z,3.50
2023-03-05T10:21:53.716Z,2.88
2023-03-05T10:24:56.128Z,3.08
2023-03-05T10:27:49.503Z,2.85
2023-03-05T10:31:11.882Z,2.90
2023-03-05T10:34:06.189Z,2.33
2023-03-05T10:37:01.961Z,2.65
2023-03-05T10:43:07.703Z,2.20
2023-03-05T10:45:41.594Z,1.60
2023-03-05T10:48:48.940Z,1.77
2023-03-05T10:51:44.009Z,1.70
2023-03-05T10:54:29.154Z,1.90
2023-03-05T10:57:20.805Z,1.77
2023-03-05T11:00:17.130Z,1.95
2023-03-05T11:03:02.584Z,2.08
2023-03-05T11:10:15.956Z,1.50
2023-03-05T11:13:24.793Z,1.40
2023-03-05T11:16:21.953Z,2.03
2023-03-05T11:23:27.841Z,2.10
2023-03-05T11:27:30.117Z,1.70
2023-03-05T12:01:37.783Z,2.55
2023-03-05T14:55:55.545Z,2.55
2023-03-05T14:58:35.774Z,3.20
2023-03-05T15:01:03.955Z,2.28
2023-03-05T15:03:30.969Z,2.78
2023-03-05T15:33:00.694Z,3.72
2023-03-05T15:36:36.017Z,4.20
2023-03-05T16:04:07.761Z,3.70
2023-03-05T16:58:47.604Z,4.68
2023-03-05T17:16:55.828Z,3.80
2023-03-05T17:24:11.808Z,4.43
2023-03-05T17:26:53.380Z,4.13
2023-03-05T17:29:21.418Z,3.55
2023-03-05T17:32:19.769Z,3.58
2023-03-05T17:35:09.154Z,3.95
2023-03-05T17:38:44.664Z,3.55
2023-03-05T17:41:37.357Z,3.28
2023-03-05T17:44:04.786Z,3.58
2023-03-05T18:05:24.279Z,3.50
2023-03-05T18:09:08.055Z,3.42
2023-03-05T18:12:17.212Z,3.47
2023-03-05T18:41:45.046Z,3.17
2023-03-05T18:44:13.720Z,3.05
2023-03-05T18:46:41.720Z,4.03
2023-03-05T18:49:14.958Z,3.53
2023-03-05T18:51:50.092Z,3.63
2023-03-05T18:54:44.195Z,4.03
2023-03-05T19:06:13.491Z,3.95
2023-03-05T19:14:09.002Z,3.78
2023-03-05T19:16:56.293Z,3.83
2023-03-05T19:19:52.071Z,3.35
2023-03-05T19:22:27.258Z,3.90
2023-03-05T19:33:29.140Z,4.45
2023-03-05T20:54:13.113Z,5.80
2023-03-05T20:56:40.516Z,5.63
2023-03-05T20:59:08.856Z,4.55
2023-03-05T21:01:38.621Z,4.70
2023-03-05T21:04:06.402Z,4.55
2023-03-05T21:06:34.251Z,3.95
2023-03-05T21:09:01.514Z,4.78
2023-03-05T21:11:29.018Z,4.43
2023-03-05T21:13:56.280Z,3.90
2023-03-05T21:16:26.520Z,4.30
2023-03-05T21:26:47.691Z,4.00
2023-03-05T22:39:35.030Z,3.35
2023-03-05T22:42:01.916Z,3.20
2023-03-05T22:44:28.843Z,3.72
2023-03-05T22:46:55.782Z,3.45
2023-03-05T22:49:22.733Z,3.33
2023-03-05T22:51:49.734Z,3.33
2023-03-05T22:54:16.656Z,3.13
2023-03-05T22:56:43.622Z,3.33
2023-03-05T22:59:10.550Z,3.22
2023-03-05T23:01:37.439Z,3.15
2023-03-05T23:04:13.412Z,2.92
2023-03-05T23:06:40.692Z,3.45
2023-03-05T23:09:07.607Z,3.10
2023-03-05T23:11:34.643Z,3.00
2023-03-05T23:14:01.624Z,3.30
2023-03-05T23:16:28.517Z,2.88
2023-03-05T23:18:56.036Z,3.20
2023-03-05T23:21:23.022Z,2.63
2023-03-05T23:23:49.905Z,2.80
2023-03-05T23:26:16.802Z,3.03
2023-03-05T23:28:43.824Z,3.22
2023-03-05T23:31:11.322Z,3.28
2023-03-05T23:33:38.467Z,3.13
2023-03-05T23:36:05.682Z,2.90
2023-03-05T23:38:33.156Z,2.80
2023-03-05T23:41:01.401Z,3.05
2023-03-05T23:43:29.686Z,3.30
2023-03-05T23:45:57.127Z,3.10
2023-03-05T23:48:26.288Z,3.28
2023-03-05T23:50:53.868Z,3.25
2023-03-05T23:53:25.853Z,3.15
2023-03-05T23:55:54.362Z,3.28
2023-03-05T23:58:22.128Z,3.03
